createdAt,value
2023-05-18T00:00:34.392Z,28.9865
2023-05-18T00:01:36.233Z,29.0074
2023-05-18T00:02:38.296Z,28.9925
2023-05-18T00:03:42.665Z,29.0200
2023-05-18T00:04:41.845Z,29.0105
2023-05-18T00:05:43.603Z,28.9719
2023-05-18T00:06:45.508Z,28.9938
2023-05-18T00:07:47.344Z,28.9778
2023-05-18T00:08:49.251Z,28.9585
2023-05-18T00:09:51.001Z,29.0059
2023-05-18T00:10:52.861Z,28.9749
2023-05-18T00:11:54.652Z,28.9746
2023-05-18T00:12:56.514Z,28.9840
2023-05-18T00:13:58.377Z,28.9761
2023-05-18T00:15:00.220Z,29.0104
2023-05-18T00:16:02.120Z,29.0099
2023-05-18T00:17:03.884Z,28.9857
2023-05-18T00:18:05.802Z,28.9563
2023-05-18T00:19:07.635Z,28.9676
2023-05-18T00:20:09.424Z,28.9588
2023-05-18T00:21:11.267Z,28.9476
2023-05-18T00:22:13.106Z,28.9087
2023-05-18T00:23:14.942Z,28.9343
2023-05-18T00:24:16.810Z,28.9666
2023-05-18T00:25:18.668Z,28.9568
2023-05-18T00:26:20.489Z,28.9554
2023-05-18T00:27:22.330Z,28.9182
2023-05-18T00:28:24.174Z,28.9418
2023-05-18T00:29:26.010Z,28.9246
2023-05-18T00:30:27.853Z,28.9592
2023-05-18T00:31:29.767Z,28.9644
2023-05-18T00:32:31.628Z,28.9382
2023-05-18T00:33:33.398Z,28.9815
2023-05-18T00:34:35.226Z,29.0088
2023-05-18T00:35:37.087Z,29.0158
2023-05-18T00:36:38.948Z,29.0579
2023-05-18T00:37:40.785Z,29.0658
2023-05-18T00:38:42.603Z,29.0901
2023-05-18T00:39:44.446Z,29.0647
2023-05-18T00:40:46.305Z,29.0713
2023-05-18T00:41:48.161Z,29.0892
2023-05-18T00:42:49.980Z,29.0932
2023-05-18T00:43:51.862Z,29.0870
2023-05-18T00:44:53.672Z,29.0574
2023-05-18T00:45:55.543Z,29.0370
2023-05-18T00:46:57.364Z,29.0492
2023-05-18T00:47:59.219Z,29.0247
2023-05-18T00:49:01.032Z,29.0133
2023-05-18T00:50:02.892Z,29.0440
2023-05-18T00:51:04.764Z,29.0872
2023-05-18T00:52:06.576Z,29.0867
2023-05-18T00:53:08.404Z,29.1183
2023-05-18T00:54:10.264Z,29.0929
2023-05-18T00:55:12.097Z,29.1043
2023-05-18T00:56:13.938Z,29.0746
2023-05-18T00:57:15.818Z,29.0462
2023-05-18T00:58:17.635Z,29.0290
2023-05-18T00:59:19.466Z,29.0174
2023-05-18T01:00:21.355Z,29.0119
2023-05-18T01:01:23.219Z,29.0370
2023-05-18T01:02:25.126Z,29.0019
2023-05-18T01:03:26.963Z,28.9823
2023-05-18T01:04:28.706Z,28.9659
2023-05-18T01:05:30.727Z,28.9447
2023-05-18T01:06:32.376Z,28.9001
2023-05-18T01:07:34.251Z,28.9579
2023-05-18T01:08:36.062Z,29.0145
2023-05-18T01:09:37.941Z,29.0173
2023-05-18T01:10:39.761Z,29.0121
2023-05-18T01:11:41.626Z,29.0236
2023-05-18T01:12:43.470Z,29.0534
2023-05-18T01:13:45.279Z,29.0980
2023-05-18T01:14:47.138Z,29.0638
2023-05-18T01:15:49.581Z,29.0714
2023-05-18T01:16:50.845Z,29.0658
2023-05-18T01:17:52.710Z,29.1273
2023-05-18T01:18:54.529Z,29.1392
2023-05-18T01:19:56.354Z,29.1239
2023-05-18T01:20:58.197Z,29.1296
2023-05-18T01:22:00.053Z,29.1499
2023-05-18T01:23:01.886Z,29.1843
2023-05-18T01:24:03.798Z,29.1748
2023-05-18T01:25:05.569Z,29.1972
2023-05-18T01:26:07.414Z,29.1877
2023-05-18T01:27:09.234Z,29.2442
2023-05-18T01:28:11.118Z,29.2189
2023-05-18T01:29:12.934Z,29.1828
2023-05-18T01:30:14.763Z,29.1755
2023-05-18T01:31:16.741Z,29.2031
2023-05-18T01:32:18.449Z,29.1850
2023-05-18T01:33:20.317Z,29.2188
2023-05-18T01:34:22.159Z,29.1955
2023-05-18T01:35:23.976Z,29.1791
2023-05-18T01:36:25.843Z,29.1452
2023-05-18T01:37:27.679Z,29.1334
2023-05-18T01:38:29.507Z,29.1034
2023-05-18T01:39:31.345Z,29.0960
2023-05-18T01:40:33.216Z,29.1321
2023-05-18T01:41:35.028Z,29.1614
2023-05-18T01:42:36.879Z,29.2390
2023-05-18T01:43:38.710Z,29.1648
2023-05-18T01:44:40.557Z,29.1712
2023-05-18T01:45:42.413Z,29.1462
2023-05-18T01:46:44.372Z,29.1593
2023-05-18T01:47:46.166Z,29.1655
2023-05-18T01:48:47.934Z,29.1752
2023-05-18T01:49:49.790Z,29.1728
2023-05-18T01:50:51.630Z,29.2057
2023-05-18T01:51:53.479Z,29.2401
2023-05-18T01:52:55.341Z,29.2191
2023-05-18T01:53:57.174Z,29.1699
2023-05-18T01:54:58.997Z,29.1641
2023-05-18T01:56:00.839Z,29.1691
2023-05-18T01:57:02.706Z,29.2202
2023-05-18T01:58:04.524Z,29.1933
2023-05-18T01:59:06.405Z,29.1969
2023-05-18T02:00:08.231Z,29.1993
2023-05-18T02:01:10.163Z,29.1908
2023-05-18T02:02:11.978Z,29.1685
2023-05-18T02:03:13.838Z,29.1423
2023-05-18T02:04:15.668Z,29.1438
2023-05-18T02:05:24.977Z,29.1583
2023-05-18T02:06:19.283Z,29.1218
2023-05-18T02:07:21.136Z,29.1545
2023-05-18T02:08:22.983Z,29.1496
2023-05-18T02:09:24.841Z,29.1374
2023-05-18T02:10:26.700Z,29.1618
2023-05-18T02:11:28.510Z,29.1122
2023-05-18T02:12:30.360Z,29.0987
2023-05-18T02:13:32.201Z,29.0908
2023-05-18T02:14:34.082Z,29.0802
2023-05-18T02:15:35.878Z,29.0480
2023-05-18T02:16:37.790Z,29.0275
2023-05-18T02:17:39.672Z,29.0470
2023-05-18T02:18:41.458Z,29.0641
2023-05-18T02:19:43.295Z,29.0780
2023-05-18T02:20:45.128Z,29.0854
2023-05-18T02:21:46.971Z,29.0944
2023-05-18T02:22:48.877Z,29.0590
2023-05-18T02:23:50.650Z,29.0959
2023-05-18T02:24:52.491Z,29.1263
2023-05-18T02:25:54.410Z,29.1256
2023-05-18T02:26:56.241Z,29.1044
2023-05-18T02:27:58.095Z,29.1025
2023-05-18T02:28:59.923Z,29.1262
2023-05-18T02:30:01.786Z,29.1522
2023-05-18T02:31:03.620Z,29.1168
2023-05-18T02:32:05.494Z,29.1044
2023-05-18T02:33:07.358Z,29.1132
2023-05-18T02:34:09.159Z,29.0987
2023-05-18T02:35:10.998Z,29.0802
2023-05-18T02:36:12.847Z,29.1124
2023-05-18T02:37:14.700Z,29.1091
2023-05-18T02:38:16.527Z,29.0829
2023-05-18T02:39:18.377Z,29.0918
2023-05-18T02:40:20.234Z,29.0885
2023-05-18T02:41:22.071Z,29.0551
2023-05-18T02:42:23.893Z,29.1088
2023-05-18T02:43:25.771Z,29.1606
2023-05-18T02:44:27.581Z,29.1271
2023-05-18T02:45:29.696Z,29.1405
2023-05-18T02:46:31.315Z,29.1230
2023-05-18T02:47:33.146Z,29.1415
2023-05-18T02:48:34.980Z,29.1239
2023-05-18T02:49:36.796Z,29.0945
2023-05-18T02:50:38.650Z,29.0602
2023-05-18T02:51:40.489Z,29.0879
2023-05-18T02:52:42.324Z,29.0777
2023-05-18T02:53:44.276Z,29.0787
2023-05-18T02:54:46.010Z,29.0727
2023-05-18T02:55:47.878Z,29.1005
2023-05-18T02:56:49.681Z,29.1034
2023-05-18T02:57:51.536Z,29.1149
2023-05-18T02:58:53.376Z,29.1186
2023-05-18T02:59:55.205Z,29.1257
2023-05-18T03:00:57.094Z,29.1234
2023-05-18T03:01:58.943Z,29.0698
2023-05-18T03:03:00.806Z,29.0858
2023-05-18T03:04:02.572Z,29.1118
2023-05-18T03:05:04.426Z,29.0925
2023-05-18T03:06:06.261Z,29.0534
2023-05-18T03:07:08.093Z,29.0490
2023-05-18T03:08:09.956Z,29.0614
2023-05-18T03:09:11.786Z,29.0962
2023-05-18T03:10:13.637Z,29.0863
2023-05-18T03:11:15.496Z,29.0644
2023-05-18T03:12:17.312Z,29.0969
2023-05-18T03:13:19.158Z,29.0909
2023-05-18T03:14:21.021Z,29.1405
2023-05-18T03:15:22.866Z,29.0760
2023-05-18T03:16:24.962Z,29.0626
2023-05-18T03:17:26.575Z,29.0742
2023-05-18T03:18:28.400Z,29.0777
2023-05-18T03:19:30.243Z,29.0924
2023-05-18T03:20:32.097Z,29.0720
2023-05-18T03:21:34.081Z,29.0168
2023-05-18T03:22:35.779Z,29.0464
2023-05-18T03:23:37.613Z,29.0046
2023-05-18T03:24:39.469Z,29.0047
2023-05-18T03:25:41.295Z,29.0087
2023-05-18T03:26:43.151Z,28.9945
2023-05-18T03:27:44.991Z,28.9737
2023-05-18T03:28:46.843Z,28.9469
2023-05-18T03:29:48.671Z,28.9983
2023-05-18T03:30:50.515Z,29.0099
2023-05-18T03:31:52.430Z,28.9878
2023-05-18T03:32:54.269Z,28.9260
2023-05-18T03:33:56.064Z,28.8837
2023-05-18T03:34:57.886Z,28.9147
2023-05-18T03:35:59.748Z,29.0135
2023-05-18T03:37:01.615Z,29.0288
2023-05-18T03:38:03.445Z,28.9992
2023-05-18T03:39:05.266Z,29.0192
2023-05-18T03:40:07.128Z,28.9871
2023-05-18T03:41:08.961Z,28.9391
2023-05-18T03:42:10.799Z,28.9180
2023-05-18T03:43:12.641Z,28.9135
2023-05-18T03:44:14.515Z,28.9384
2023-05-18T03:45:16.312Z,28.9517
2023-05-18T03:46:18.245Z,28.9578
2023-05-18T03:47:20.012Z,28.9334
2023-05-18T03:48:21.868Z,28.8932
2023-05-18T03:49:23.666Z,28.9219
2023-05-18T03:50:25.553Z,28.9194
2023-05-18T03:51:27.372Z,28.9422
2023-05-18T03:52:29.213Z,28.9440
2023-05-18T03:53:31.048Z,28.9296
2023-05-18T03:54:32.968Z,28.9341
2023-05-18T03:55:34.742Z,28.9433
2023-05-18T03:56:36.577Z,28.9770
2023-05-18T03:57:38.477Z,28.9450
2023-05-18T03:58:40.272Z,28.9428
2023-05-18T03:59:42.135Z,28.9602
2023-05-18T04:00:43.960Z,28.8855
2023-05-18T04:01:45.855Z,28.8397
2023-05-18T04:02:47.690Z,28.8443
2023-05-18T04:03:49.544Z,28.8793
2023-05-18T04:04:51.338Z,28.8897
2023-05-18T04:05:53.175Z,28.8796
2023-05-18T04:06:55.008Z,28.9328
2023-05-18T04:07:56.884Z,28.9374
2023-05-18T04:08:58.688Z,28.8939
2023-05-18T04:10:00.545Z,28.9050
2023-05-18T04:11:02.389Z,28.9410
2023-05-18T04:12:04.225Z,28.8933
2023-05-18T04:13:06.088Z,28.8906
2023-05-18T04:14:07.926Z,28.8903
2023-05-18T04:15:09.761Z,28.9382
2023-05-18T04:16:11.611Z,28.9087
2023-05-18T04:17:13.440Z,28.9426
2023-05-18T04:18:15.585Z,28.9385
2023-05-18T04:19:17.210Z,28.8774
2023-05-18T04:20:18.977Z,28.8849
2023-05-18T04:21:20.831Z,28.9323
2023-05-18T04:22:22.676Z,28.9550
2023-05-18T04:23:24.514Z,28.9733
2023-05-18T04:24:26.353Z,28.9742
2023-05-18T04:25:28.691Z,28.9539
2023-05-18T04:26:30.044Z,28.9168
2023-05-18T04:27:31.896Z,28.9219
2023-05-18T04:28:33.763Z,28.9648
2023-05-18T04:29:35.563Z,28.9553
2023-05-18T04:30:37.459Z,29.0074
2023-05-18T04:31:39.278Z,28.9794
2023-05-18T04:32:41.131Z,28.9067
2023-05-18T04:33:42.972Z,28.8943
2023-05-18T04:34:44.786Z,28.8199
2023-05-18T04:35:46.632Z,28.7452
2023-05-18T04:36:48.498Z,28.7539
2023-05-18T04:37:50.344Z,28.7625
2023-05-18T04:38:52.193Z,28.7904
2023-05-18T04:39:54.010Z,28.7843
2023-05-18T04:40:55.851Z,28.7755
2023-05-18T04:41:57.710Z,28.7947
2023-05-18T04:42:59.556Z,28.8179
2023-05-18T04:44:01.406Z,28.8072
2023-05-18T04:45:03.253Z,28.7804
2023-05-18T04:46:05.120Z,28.8284
2023-05-18T04:47:06.922Z,28.8167
2023-05-18T04:48:08.851Z,28.8092
2023-05-18T04:49:10.679Z,28.8123
2023-05-18T04:50:12.458Z,28.7736
2023-05-18T04:51:14.332Z,28.7708
2023-05-18T04:52:16.174Z,28.7500
2023-05-18T04:53:18.022Z,28.7480
2023-05-18T04:54:19.852Z,28.7143
2023-05-18T04:55:21.693Z,28.7065
2023-05-18T04:56:23.538Z,28.7100
2023-05-18T04:57:25.374Z,28.7701
2023-05-18T04:58:28.195Z,28.7815
2023-05-18T04:59:29.093Z,28.7679
2023-05-18T05:00:30.906Z,28.7854
2023-05-18T05:01:32.824Z,28.8250
2023-05-18T05:02:34.724Z,28.7994
2023-05-18T05:03:36.493Z,28.8133
2023-05-18T05:04:38.306Z,28.7872
2023-05-18T05:05:40.115Z,28.7916
2023-05-18T05:06:41.982Z,28.7979
2023-05-18T05:07:43.808Z,28.7679
2023-05-18T05:08:45.685Z,28.8041
2023-05-18T05:09:47.547Z,28.7932
2023-05-18T05:10:49.365Z,28.8409
2023-05-18T05:11:51.196Z,28.8222
2023-05-18T05:12:53.041Z,28.8382
2023-05-18T05:13:54.927Z,28.8312
2023-05-18T05:14:56.779Z,28.8701
2023-05-18T05:15:58.630Z,28.9176
2023-05-18T05:17:00.425Z,28.9371
2023-05-18T05:18:02.307Z,28.8631
2023-05-18T05:19:04.156Z,28.8652
2023-05-18T05:20:05.975Z,28.8697
2023-05-18T05:21:07.785Z,28.8458
2023-05-18T05:22:09.651Z,28.7935
2023-05-18T05:23:11.516Z,28.8395
2023-05-18T05:24:13.327Z,28.8756
2023-05-18T05:25:15.237Z,28.9104
2023-05-18T05:26:17.013Z,28.8889
2023-05-18T05:27:18.869Z,28.8627
2023-05-18T05:28:20.712Z,28.8971
2023-05-18T05:29:22.554Z,28.8932
2023-05-18T05:30:24.396Z,28.8314
2023-05-18T05:31:26.273Z,28.8001
2023-05-18T05:32:28.119Z,28.7571
2023-05-18T05:33:29.915Z,28.7510
2023-05-18T05:34:31.767Z,28.7632
2023-05-18T05:35:34.057Z,28.7406
2023-05-18T05:36:35.435Z,28.7186
2023-05-18T05:37:37.278Z,28.7946
2023-05-18T05:38:39.117Z,28.7862
2023-05-18T05:39:40.993Z,28.7989
2023-05-18T05:40:42.833Z,28.8043
2023-05-18T05:41:44.651Z,28.8787
2023-05-18T05:42:46.507Z,28.8762
2023-05-18T05:43:48.341Z,28.8844
2023-05-18T05:44:50.201Z,28.8566
2023-05-18T05:45:52.050Z,28.8396
2023-05-18T05:46:53.945Z,28.8031
2023-05-18T05:47:55.810Z,28.8030
2023-05-18T05:48:57.569Z,28.8378
2023-05-18T05:49:59.401Z,28.8581
2023-05-18T05:51:01.284Z,28.8971
2023-05-18T05:52:03.112Z,28.9032
2023-05-18T05:53:04.925Z,28.9264
2023-05-18T05:54:07.897Z,28.9390
2023-05-18T05:55:08.624Z,28.9362
2023-05-18T05:56:10.468Z,28.9875
2023-05-18T05:57:12.308Z,29.0523
2023-05-18T05:58:14.141Z,29.0514
2023-05-18T05:59:15.997Z,29.0469
2023-05-18T06:00:17.817Z,29.0456
2023-05-18T06:01:19.692Z,29.0128
2023-05-18T06:02:21.564Z,28.9856
2023-05-18T06:03:23.518Z,28.9572
2023-05-18T06:04:25.261Z,28.9575
2023-05-18T06:05:27.092Z,28.9654
2023-05-18T06:06:28.894Z,29.0321
2023-05-18T06:07:30.719Z,29.0132
2023-05-18T06:08:32.554Z,29.0252
2023-05-18T06:09:34.414Z,29.0213
2023-05-18T06:10:36.248Z,29.0207
2023-05-18T06:11:38.083Z,29.0437
2023-05-18T06:12:39.940Z,29.0217
2023-05-18T06:13:41.771Z,29.0113
2023-05-18T06:14:43.594Z,28.9748
2023-05-18T06:15:45.452Z,29.0010
2023-05-18T06:16:47.351Z,29.0147
2023-05-18T06:17:49.141Z,29.0604
2023-05-18T06:18:50.994Z,29.0998
2023-05-18T06:19:52.819Z,29.0779
2023-05-18T06:20:54.673Z,29.0957
2023-05-18T06:21:56.512Z,29.0444
2023-05-18T06:22:58.322Z,28.9996
2023-05-18T06:24:00.172Z,29.0556
2023-05-18T06:25:02.017Z,29.0722
2023-05-18T06:26:03.846Z,29.0620
2023-05-18T06:27:05.724Z,29.1193
2023-05-18T06:28:07.565Z,29.1323
2023-05-18T06:29:09.476Z,29.1079
2023-05-18T06:30:11.339Z,29.1387
2023-05-18T06:31:13.150Z,29.1443
2023-05-18T06:32:15.021Z,29.1249
2023-05-18T06:33:16.949Z,29.1509
2023-05-18T06:34:18.686Z,29.1781
2023-05-18T06:35:20.537Z,29.2409
2023-05-18T06:36:22.357Z,29.2510
2023-05-18T06:37:24.220Z,29.2708
2023-05-18T06:38:26.054Z,29.2842
2023-05-18T06:39:27.881Z,29.2880
2023-05-18T06:40:29.750Z,29.3012
2023-05-18T06:41:31.573Z,29.3025
2023-05-18T06:42:33.421Z,29.2908
2023-05-18T06:43:35.255Z,29.2735
2023-05-18T06:44:37.100Z,29.2870
2023-05-18T06:45:39.166Z,29.2752
2023-05-18T06:46:40.971Z,29.3242
2023-05-18T06:47:42.668Z,29.3120
2023-05-18T06:48:44.444Z,29.2910
2023-05-18T06:49:46.282Z,29.2178
2023-05-18T06:50:48.135Z,29.1836
2023-05-18T06:51:49.964Z,29.1948
2023-05-18T06:52:51.824Z,29.2189
2023-05-18T06:53:53.671Z,29.2404
2023-05-18T06:54:55.498Z,29.2586
2023-05-18T06:55:57.344Z,29.2955
2023-05-18T06:56:59.188Z,29.3155
2023-05-18T06:58:01.042Z,29.3840
2023-05-18T06:59:02.873Z,29.3884
2023-05-18T07:00:04.687Z,29.3969
2023-05-18T07:01:06.642Z,29.3315
2023-05-18T07:02:08.379Z,29.2878
2023-05-18T07:03:10.321Z,29.3114
2023-05-18T07:04:12.170Z,29.3335
2023-05-18T07:05:13.905Z,29.3863
2023-05-18T07:06:15.758Z,29.4076
2023-05-18T07:07:17.579Z,29.4686
2023-05-18T07:08:19.514Z,29.5270
2023-05-18T07:09:21.271Z,29.5698
2023-05-18T07:10:23.103Z,29.5630
2023-05-18T07:11:25.582Z,29.5484
2023-05-18T07:12:26.797Z,29.5781
2023-05-18T07:13:28.647Z,29.5645
2023-05-18T07:14:30.475Z,29.5520
2023-05-18T07:15:32.594Z,29.5483
2023-05-18T07:16:34.311Z,29.5789
2023-05-18T07:17:36.063Z,29.5356
2023-05-18T07:18:37.907Z,29.5254
2023-05-18T07:19:39.733Z,29.5289
2023-05-18T07:20:41.558Z,29.5441
2023-05-18T07:21:43.397Z,29.5555
2023-05-18T07:22:45.253Z,29.5328
2023-05-18T07:23:47.128Z,29.5648
2023-05-18T07:24:48.930Z,29.5734
2023-05-18T07:25:50.775Z,29.5492
2023-05-18T07:26:52.628Z,29.6032
2023-05-18T07:27:54.545Z,29.6848
2023-05-18T07:28:56.341Z,29.6999
2023-05-18T07:29:58.159Z,29.6819
2023-05-18T07:31:00.039Z,29.6362
2023-05-18T07:32:01.909Z,29.5733
2023-05-18T07:33:03.727Z,29.6050
2023-05-18T07:34:05.539Z,29.6031
2023-05-18T07:35:07.395Z,29.6238
2023-05-18T07:36:09.272Z,29.6641
2023-05-18T07:37:11.062Z,29.6153
2023-05-18T07:38:12.934Z,29.6413
2023-05-18T07:39:14.800Z,29.6656
2023-05-18T07:40:16.607Z,29.7348
2023-05-18T07:41:18.476Z,29.8167
2023-05-18T07:42:20.318Z,29.8646
2023-05-18T07:43:22.140Z,29.8161
2023-05-18T07:44:24.012Z,29.7245
2023-05-18T07:45:25.844Z,29.7309
2023-05-18T07:46:27.712Z,29.7283
2023-05-18T07:47:29.625Z,29.8026
2023-05-18T07:48:31.377Z,29.8453
2023-05-18T07:49:33.220Z,29.8652
2023-05-18T07:50:35.082Z,29.8021
2023-05-18T07:51:37.001Z,29.8170
2023-05-18T07:52:38.759Z,29.8563
2023-05-18T07:53:40.581Z,29.8244
2023-05-18T07:54:42.453Z,29.8276
2023-05-18T07:55:44.261Z,29.9305
2023-05-18T07:56:46.120Z,29.9758
2023-05-18T07:57:47.941Z,29.9315
2023-05-18T07:58:49.794Z,29.8991
2023-05-18T07:59:51.638Z,29.9016
2023-05-18T08:00:53.473Z,29.9631
2023-05-18T08:01:55.356Z,29.9955
2023-05-18T08:02:57.269Z,30.0025
2023-05-18T08:03:59.080Z,29.9804
2023-05-18T08:05:00.823Z,29.9843
2023-05-18T08:06:02.686Z,30.0361
2023-05-18T08:07:04.507Z,30.0399
2023-05-18T08:08:07.109Z,30.0395
2023-05-18T08:09:08.191Z,30.0653
2023-05-18T08:10:10.061Z,30.0531
2023-05-18T08:11:11.889Z,30.0304
2023-05-18T08:12:13.722Z,30.0666
2023-05-18T08:13:15.560Z,30.1068
2023-05-18T08:14:17.416Z,30.0799
2023-05-18T08:15:19.256Z,29.9917
2023-05-18T08:16:21.131Z,29.9399
2023-05-18T08:17:22.968Z,29.8764
2023-05-18T08:18:24.772Z,29.8680
2023-05-18T08:19:26.694Z,29.8666
2023-05-18T08:20:28.479Z,29.8624
2023-05-18T08:21:30.294Z,29.8004
2023-05-18T08:22:32.164Z,29.8105
2023-05-18T08:23:33.984Z,29.9075
2023-05-18T08:24:35.836Z,29.8998
2023-05-18T08:25:37.688Z,29.9637
2023-05-18T08:26:39.492Z,29.9847
2023-05-18T08:27:41.355Z,30.0292
2023-05-18T08:28:43.174Z,30.0463
2023-05-18T08:29:45.018Z,30.0670
2023-05-18T08:30:46.896Z,30.0944
2023-05-18T08:31:49.674Z,30.0926
2023-05-18T08:32:50.596Z,30.1096
2023-05-18T08:33:52.392Z,30.0358
2023-05-18T08:34:54.250Z,30.0565
2023-05-18T08:35:56.101Z,30.0657
2023-05-18T08:36:57.939Z,30.0741
2023-05-18T08:37:59.780Z,30.0929
2023-05-18T08:39:01.600Z,30.0976
2023-05-18T08:40:03.470Z,30.0978
2023-05-18T08:41:05.334Z,30.0449
2023-05-18T08:42:07.140Z,30.0267
2023-05-18T08:43:08.993Z,30.1032
2023-05-18T08:44:10.814Z,30.1611
2023-05-18T08:45:12.674Z,30.2072
2023-05-18T08:46:14.520Z,30.2570
2023-05-18T08:47:16.349Z,30.3014
2023-05-18T08:48:18.212Z,30.3295
2023-05-18T08:49:20.044Z,30.3425
2023-05-18T08:50:28.052Z,30.3407
2023-05-18T08:51:26.378Z,30.3327
2023-05-18T08:52:26.950Z,30.3603
2023-05-18T08:53:28.492Z,30.3509
2023-05-18T08:54:30.051Z,30.3428
2023-05-18T08:55:31.820Z,30.2832
2023-05-18T08:56:33.174Z,30.2754
2023-05-18T08:57:34.756Z,30.2334
2023-05-18T08:58:36.656Z,30.2489
2023-05-18T08:59:38.528Z,30.2956
2023-05-18T09:00:40.278Z,30.3356
2023-05-18T09:01:42.190Z,30.4040
2023-05-18T09:02:43.960Z,30.3829
2023-05-18T09:03:45.782Z,30.4103
2023-05-18T09:04:47.670Z,30.3880
2023-05-18T09:05:49.479Z,30.3541
2023-05-18T09:06:51.309Z,30.3199
2023-05-18T09:07:53.177Z,30.3287
2023-05-18T09:08:55.006Z,30.3380
2023-05-18T09:09:56.842Z,30.2996
2023-05-18T09:10:58.679Z,30.3131
2023-05-18T09:12:00.531Z,30.3740
2023-05-18T09:13:02.355Z,30.4413
2023-05-18T09:14:04.214Z,30.5082
2023-05-18T09:15:06.061Z,30.4428
2023-05-18T09:16:08.013Z,30.3252
2023-05-18T09:17:09.730Z,30.2648
2023-05-18T09:18:11.645Z,30.2277
2023-05-18T09:19:13.500Z,30.1741
2023-05-18T09:20:15.256Z,30.1165
2023-05-18T09:21:17.105Z,30.0856
2023-05-18T09:22:18.952Z,30.1039
2023-05-18T09:23:20.789Z,30.0779
2023-05-18T09:24:24.791Z,29.9897
2023-05-18T09:25:24.482Z,29.9714
2023-05-18T09:26:26.311Z,29.9600
2023-05-18T09:27:28.169Z,29.9636
2023-05-18T09:28:30.015Z,30.0316
2023-05-18T09:29:33.578Z,30.0906
2023-05-18T09:30:33.687Z,30.0795
2023-05-18T09:31:35.560Z,30.0858
2023-05-18T09:32:37.486Z,30.1108
2023-05-18T09:33:39.318Z,30.2034
2023-05-18T09:34:41.058Z,30.1947
2023-05-18T09:35:42.914Z,30.1670
2023-05-18T09:36:44.756Z,30.1806
2023-05-18T09:37:46.633Z,30.1464
2023-05-18T09:38:48.447Z,30.1510
2023-05-18T09:39:50.270Z,30.1421
2023-05-18T09:40:52.124Z,30.1140
2023-05-18T09:41:53.974Z,30.1696
2023-05-18T09:42:55.800Z,30.2120
2023-05-18T09:43:57.665Z,30.2273
2023-05-18T09:44:59.516Z,30.2946
2023-05-18T09:46:01.339Z,30.2720
2023-05-18T09:47:03.419Z,30.3163
2023-05-18T09:48:05.080Z,30.3847
2023-05-18T09:49:06.872Z,30.3898
2023-05-18T09:50:08.725Z,30.4214
2023-05-18T09:51:10.579Z,30.4267
2023-05-18T09:52:12.409Z,30.3862
2023-05-18T09:53:14.245Z,30.4490
2023-05-18T09:54:16.110Z,30.3942
2023-05-18T09:55:17.939Z,30.2571
2023-05-18T09:56:19.777Z,30.2548
2023-05-18T09:57:21.663Z,30.3122
2023-05-18T09:58:23.482Z,30.4137
2023-05-18T09:59:25.313Z,30.4830
2023-05-18T10:00:27.170Z,30.4991
2023-05-18T10:01:29.118Z,30.4522
2023-05-18T10:02:30.864Z,30.4751
2023-05-18T10:03:32.715Z,30.4857
2023-05-18T10:04:34.604Z,30.4219
2023-05-18T10:05:36.672Z,30.4743
2023-05-18T10:06:38.228Z,30.4808
2023-05-18T10:07:40.055Z,30.5602
2023-05-18T10:08:41.933Z,30.5339
2023-05-18T10:09:43.755Z,30.5357
2023-05-18T10:10:45.604Z,30.5238
2023-05-18T10:11:47.421Z,30.5422
2023-05-18T10:12:49.282Z,30.5581
2023-05-18T10:13:51.118Z,30.5938
2023-05-18T10:14:52.955Z,30.6304
2023-05-18T10:15:54.819Z,30.6756
2023-05-18T10:17:07.296Z,30.7217
2023-05-18T10:18:01.206Z,30.7124
2023-05-18T10:19:01.806Z,30.6953
2023-05-18T10:20:03.310Z,30.6595
2023-05-18T10:21:04.898Z,30.6406
2023-05-18T10:22:06.430Z,30.6486
2023-05-18T10:23:07.993Z,30.6263
2023-05-18T10:24:09.579Z,30.6527
2023-05-18T10:25:11.391Z,30.7474
2023-05-18T10:26:13.272Z,30.7493
2023-05-18T10:27:15.072Z,30.8081
2023-05-18T10:28:16.914Z,30.8397
2023-05-18T10:29:18.768Z,30.8223
2023-05-18T10:30:20.599Z,30.8027
2023-05-18T10:31:22.511Z,30.8064
2023-05-18T10:32:24.322Z,30.7722
2023-05-18T10:33:29.685Z,30.7661
2023-05-18T10:34:28.043Z,30.8149
2023-05-18T10:35:29.895Z,30.8631
2023-05-18T10:36:31.720Z,30.9391
2023-05-18T10:37:33.578Z,30.9541
2023-05-18T10:38:35.416Z,31.0019
2023-05-18T10:39:37.303Z,31.0721
2023-05-18T10:40:39.130Z,31.0606
2023-05-18T10:41:40.920Z,31.0600
2023-05-18T10:42:42.767Z,31.0854
2023-05-18T10:43:44.619Z,31.1408
2023-05-18T10:44:46.474Z,31.0951
2023-05-18T10:45:48.373Z,31.1464
2023-05-18T10:46:50.265Z,31.1941
2023-05-18T10:47:52.051Z,31.2111
2023-05-18T10:48:53.809Z,31.2188
2023-05-18T10:49:55.691Z,31.2256
2023-05-18T10:50:57.517Z,31.1708
2023-05-18T10:51:59.339Z,31.1752
2023-05-18T10:53:01.198Z,31.2001
2023-05-18T10:54:03.041Z,31.2425
2023-05-18T10:55:04.865Z,31.3200
2023-05-18T10:56:06.729Z,31.2577
2023-05-18T10:57:08.546Z,31.2312
2023-05-18T10:58:10.410Z,31.3007
2023-05-18T10:59:12.261Z,31.3245
2023-05-18T11:00:14.088Z,31.3824
2023-05-18T11:01:15.997Z,31.3889
2023-05-18T11:02:17.767Z,31.4356
2023-05-18T11:03:19.666Z,31.4398
2023-05-18T11:04:21.490Z,31.3777
2023-05-18T11:05:23.473Z,31.3914
2023-05-18T11:06:25.154Z,31.4274
2023-05-18T11:07:26.957Z,31.4040
2023-05-18T11:08:28.839Z,31.3419
2023-05-18T11:09:30.640Z,31.3453
2023-05-18T11:10:32.570Z,31.3335
2023-05-18T11:11:34.321Z,31.3640
2023-05-18T11:12:36.166Z,31.4075
2023-05-18T11:13:37.995Z,31.4583
2023-05-18T11:14:39.854Z,31.4651
2023-05-18T11:15:41.697Z,31.4619
2023-05-18T11:16:43.607Z,31.5228
2023-05-18T11:17:45.418Z,31.4924
2023-05-18T11:18:47.269Z,31.4356
2023-05-18T11:19:49.047Z,31.4143
2023-05-18T11:20:50.905Z,31.3229
2023-05-18T11:21:52.761Z,31.3106
2023-05-18T11:22:54.606Z,31.3628
2023-05-18T11:23:56.444Z,31.4615
2023-05-18T11:24:58.269Z,31.5194
2023-05-18T11:26:00.133Z,31.6038
2023-05-18T11:27:01.963Z,31.5444
2023-05-18T11:28:03.795Z,31.4985
2023-05-18T11:29:05.646Z,31.5525
2023-05-18T11:30:15.162Z,31.5973
2023-05-18T11:31:11.106Z,31.6398
2023-05-18T11:33:13.306Z,31.6749
2023-05-18T11:34:14.864Z,31.7011
2023-05-18T11:35:16.704Z,31.6991
2023-05-18T11:36:18.547Z,31.7169
2023-05-18T11:37:20.388Z,31.7745
2023-05-18T11:38:22.232Z,31.7139
2023-05-18T11:39:24.079Z,31.6635
2023-05-18T11:40:25.897Z,31.6727
2023-05-18T11:41:27.765Z,31.6425
2023-05-18T11:42:29.598Z,31.6328
2023-05-18T11:43:31.425Z,31.6127
2023-05-18T11:44:33.278Z,31.5775
2023-05-18T11:45:35.102Z,31.5446
2023-05-18T11:46:36.974Z,31.5461
2023-05-18T11:47:38.812Z,31.5440
2023-05-18T11:48:40.722Z,31.5470
2023-05-18T11:49:42.493Z,31.4600
2023-05-18T11:50:44.310Z,31.4303
2023-05-18T11:51:46.165Z,31.4264
2023-05-18T11:52:48.101Z,31.4912
2023-05-18T11:53:49.845Z,31.4934
2023-05-18T11:54:51.701Z,31.5263
2023-05-18T11:55:53.535Z,31.5629
2023-05-18T11:56:55.398Z,31.5230
2023-05-18T11:57:57.212Z,31.5360
2023-05-18T11:58:59.069Z,31.5427
2023-05-18T12:00:00.911Z,31.5073
2023-05-18T12:01:02.762Z,31.4286
2023-05-18T12:02:04.671Z,31.4426
2023-05-18T12:03:06.554Z,31.4644
2023-05-18T12:04:08.365Z,31.4757
2023-05-18T12:05:10.131Z,31.4993
2023-05-18T12:06:11.963Z,31.5149
2023-05-18T12:07:13.840Z,31.5203
2023-05-18T12:08:15.647Z,31.5502
2023-05-18T12:09:17.502Z,31.5934
2023-05-18T12:10:19.332Z,31.5725
2023-05-18T12:11:21.170Z,31.5562
2023-05-18T12:12:23.050Z,31.5015
2023-05-18T12:13:24.854Z,31.4986
2023-05-18T12:14:26.719Z,31.4019
2023-05-18T12:15:28.557Z,31.4238
2023-05-18T12:16:30.425Z,31.4201
2023-05-18T12:17:32.249Z,31.3997
2023-05-18T12:18:34.069Z,31.3399
2023-05-18T12:19:35.922Z,31.3905
2023-05-18T12:20:37.742Z,31.4183
2023-05-18T12:21:39.598Z,31.4299
2023-05-18T12:22:41.460Z,31.4636
2023-05-18T12:23:43.282Z,31.4825
2023-05-18T12:24:45.128Z,31.4602
2023-05-18T12:25:46.975Z,31.4231
2023-05-18T12:26:48.792Z,31.3650
2023-05-18T12:27:50.684Z,31.3298
2023-05-18T12:28:52.482Z,31.3372